sensor_id;sensor_type;location;lat;lon;timestamp;pressure;altitude;pressure_sealevel;temperature;humidity
55077;BME280;40971;44.702;11.030;2023-12-20T00:01:24;101670.03;;;-0.24;100.00
55077;BME280;40971;44.702;11.030;2023-12-20T00:11:24;101657.72;;;0.17;100.00
55077;BME280;40971;44.702;11.030;2023-12-20T00:21:26;101644.63;;;0.03;100.00
55077;BME280;40971;44.702;11.030;2023-12-20T00:31:30;101624.13;;;0.00;100.00
55077;BME280;40971;44.702;11.030;2023-12-20T00:41:31;101596.28;;;-0.67;100.00
55077;BME280;40971;44.702;11.030;2023-12-20T00:51:31;101593.50;;;-0.62;100.00
55077;BME280;40971;44.702;11.030;2023-12-20T01:01:33;101571.28;;;-0.66;100.00
55077;BME280;40971;44.702;11.030;2023-12-20T01:11:37;101565.59;;;-0.01;100.00
55077;BME280;40971;44.702;11.030;2023-12-20T01:21:39;101552.63;;;-0.35;100.00
55077;BME280;40971;44.702;11.030;2023-12-20T01:31:42;101551.22;;;-0.78;100.00
55077;BME280;40971;44.702;11.030;2023-12-20T01:41:46;101521.06;;;-0.59;100.00
55077;BME280;40971;44.702;11.030;2023-12-20T01:51:48;101500.41;;;-0.42;100.00
55077;BME280;40971;44.702;11.030;2023-12-20T02:01:50;101508.91;;;-0.57;100.00
55077;BME280;40971;44.702;11.030;2023-12-20T02:11:55;101490.56;;;-0.87;100.00
55077;BME280;40971;44.702;11.030;2023-12-20T02:22:11;101476.97;;;-1.09;100.00
55077;BME280;40971;44.702;11.030;2023-12-20T02:32:17;101472.53;;;-0.88;100.00
55077;BME280;40971;44.702;11.030;2023-12-20T02:42:19;101462.94;;;-1.22;100.00
55077;BME280;40971;44.702;11.030;2023-12-20T02:52:21;101447.94;;;-1.14;100.00
55077;BME280;40971;44.702;11.030;2023-12-20T03:02:24;101440.66;;;-1.23;100.00
55077;BME280;40971;44.702;11.030;2023-12-20T03:12:26;101446.19;;;-0.95;100.00
55077;BME280;40971;44.702;11.030;2023-12-20T03:22:30;101448.97;;;-0.99;100.00
55077;BME280;40971;44.702;11.030;2023-12-20T03:32:34;101443.84;;;-1.18;100.00
55077;BME280;40971;44.702;11.030;2023-12-20T03:42:39;101438.84;;;-1.40;100.00
55077;BME280;40971;44.702;11.030;2023-12-20T03:52:41;101424.13;;;-0.83;100.00
55077;BME280;40971;44.702;11.030;2023-12-20T04:02:46;101402.53;;;-1.54;100.00
55077;BME280;40971;44.702;11.030;2023-12-20T04:12:48;101388.31;;;-1.62;100.00
55077;BME280;40971;44.702;11.030;2023-12-20T04:22:49;101377.44;;;-1.50;100.00
55077;BME280;40971;44.702;11.030;2023-12-20T04:32:50;101359.34;;;-1.13;100.00
55077;BME280;40971;44.702;11.030;2023-12-20T04:42:52;101351.03;;;-0.67;100.00
55077;BME280;40971;44.702;11.030;2023-12-20T04:52:55;101346.78;;;-0.68;100.00
55077;BME280;40971;44.702;11.030;2023-12-20T05:02:57;101364.03;;;-1.21;100.00
55077;BME280;40971;44.702;11.030;2023-12-20T05:13:00;101365.41;;;-1.14;100.00
55077;BME280;40971;44.702;11.030;2023-12-20T05:23:04;101349.97;;;-0.80;100.00
55077;BME280;40971;44.702;11.030;2023-12-20T05:33:09;101351.25;;;-0.37;100.00
55077;BME280;40971;44.702;11.030;2023-12-20T05:43:11;101333.50;;;-0.77;100.00
55077;BME280;40971;44.702;11.030;2023-12-20T05:53:12;101346.91;;;-1.05;100.00
55077;BME280;40971;44.702;11.030;2023-12-20T06:03:14;101356.97;;;-0.82;100.00
55077;BME280;40971;44.702;11.030;2023-12-20T06:13:15;101330.06;;;-0.78;100.00
55077;BME280;40971;44.702;11.030;2023-12-20T06:23:17;101315.31;;;-0.59;100.00
55077;BME280;40971;44.702;11.030;2023-12-20T06:33:19;101303.28;;;-0.75;100.00
55077;BME280;40971;44.702;11.030;2023-12-20T06:43:24;101340.84;;;-0.52;100.00
55077;BME280;40971;44.702;11.030;2023-12-20T06:53:26;101352.25;;;-0.39;100.00
55077;BME280;40971;44.702;11.030;2023-12-20T07:03:27;101331.47;;;-0.05;100.00
55077;BME280;40971;44.702;11.030;2023-12-20T07:13:29;101317.34;;;0.18;100.00
55077;BME280;40971;44.702;11.030;2023-12-20T07:23:32;101337.34;;;0.77;100.00
55077;BME280;40971;44.702;11.030;2023-12-20T07:33:33;101337.19;;;0.80;100.00
55077;BME280;40971;44.702;11.030;2023-12-20T07:43:35;101349.75;;;1.01;100.00
55077;BME280;40971;44.702;11.030;2023-12-20T07:53:38;101362.97;;;0.97;100.00
55077;BME280;40971;44.702;11.030;2023-12-20T08:03:41;101365.66;;;1.25;100.00
55077;BME280;40971;44.702;11.030;2023-12-20T08:13:43;101366.25;;;1.44;100.00
55077;BME280;40971;44.702;11.030;2023-12-20T08:23:47;101377.06;;;1.81;100.00
55077;BME280;40971;44.702;11.030;2023-12-20T08:33:49;101362.13;;;1.98;100.00
55077;BME280;40971;44.702;11.030;2023-12-20T08:43:53;101358.13;;;2.49;100.00
55077;BME280;40971;44.702;11.030;2023-12-20T08:53:54;101357.28;;;2.89;100.00
55077;BME280;40971;44.702;11.030;2023-12-20T09:03:56;101389.97;;;3.19;100.00
55077;BME280;40971;44.702;11.030;2023-12-20T09:13:58;101381.84;;;3.50;99.42
55077;BME280;40971;44.702;11.030;2023-12-20T09:24:00;101390.06;;;3.69;97.75
55077;BME280;40971;44.702;11.030;2023-12-20T09:34:01;101397.47;;;3.75;100.00
55077;BME280;40971;44.702;11.030;2023-12-20T09:44:05;101386.66;;;4.06;98.34
55077;BME280;40971;44.702;11.030;2023-12-20T09:54:08;101363.59;;;4.51;97.12
55077;BME280;40971;44.702;11.030;2023-12-20T10:04:12;101355.78;;;4.51;96.07
55077;BME280;40971;44.702;11.030;2023-12-20T10:14:16;101316.56;;;4.65;95.41
55077;BME280;40971;44.702;11.030;2023-12-20T10:24:18;101300.63;;;5.04;94.10
55077;BME280;40971;44.702;11.030;2023-12-20T10:34:19;101278.44;;;5.34;93.26
55077;BME280;40971;44.702;11.030;2023-12-20T10:44:20;101280.81;;;5.48;95.25
55077;BME280;40971;44.702;11.030;2023-12-20T10:54:21;101272.44;;;5.66;91.72
55077;BME280;40971;44.702;11.030;2023-12-20T11:04:31;101265.13;;;5.94;90.15
55077;BME280;40971;44.702;11.030;2023-12-20T11:14:55;101250.50;;;6.13;90.45
55077;BME280;40971;44.702;11.030;2023-12-20T11:25:05;101249.06;;;6.20;90.49
55077;BME280;40971;44.702;11.030;2023-12-20T11:45:18;101227.28;;;6.42;89.09
55077;BME280;40971;44.702;11.030;2023-12-20T11:55:21;101208.38;;;6.50;87.73
55077;BME280;40971;44.702;11.030;2023-12-20T12:05:23;101205.28;;;6.56;88.51
55077;BME280;40971;44.702;11.030;2023-12-20T12:15:25;101202.91;;;6.73;88.47
55077;BME280;40971;44.702;11.030;2023-12-20T12:25:29;101191.13;;;6.79;87.66
55077;BME280;40971;44.702;11.030;2023-12-20T12:35:31;101180.00;;;6.77;88.42
55077;BME280;40971;44.702;11.030;2023-12-20T12:45:33;101167.28;;;6.93;88.40
55077;BME280;40971;44.702;11.030;2023-12-20T12:55:37;101165.25;;;6.76;90.14
55077;BME280;40971;44.702;11.030;2023-12-20T13:05:39;101167.88;;;6.76;91.28
55077;BME280;40971;44.702;11.030;2023-12-20T13:15:41;101152.44;;;6.73;91.77
55077;BME280;40971;44.702;11.030;2023-12-20T13:25:45;101150.38;;;6.67;91.63
55077;BME280;40971;44.702;11.030;2023-12-20T13:35:48;101151.69;;;6.61;93.27
55077;BME280;40971;44.702;11.030;2023-12-20T13:45:52;101156.91;;;6.40;95.86
55077;BME280;40971;44.702;11.030;2023-12-20T13:55:57;101145.38;;;6.43;95.98
55077;BME280;40971;44.702;11.030;2023-12-20T14:06:02;101153.03;;;6.56;95.59
55077;BME280;40971;44.702;11.030;2023-12-20T14:16:05;101160.44;;;6.19;99.49
55077;BME280;40971;44.702;11.030;2023-12-20T14:26:09;101151.63;;;6.20;97.84
55077;BME280;40971;44.702;11.030;2023-12-20T14:36:19;101166.13;;;6.13;98.78
55077;BME280;40971;44.702;11.030;2023-12-20T14:46:22;101170.56;;;6.01;100.00
55077;BME280;40971;44.702;11.030;2023-12-20T14:56:25;101191.41;;;6.12;100.00
55077;BME280;40971;44.702;11.030;2023-12-20T15:06:30;101171.88;;;5.84;100.00
55077;BME280;40971;44.702;11.030;2023-12-20T15:16:35;101179.03;;;5.60;100.00
55077;BME280;40971;44.702;11.030;2023-12-20T15:26:38;101196.91;;;5.20;100.00
55077;BME280;40971;44.702;11.030;2023-12-20T15:36:42;101199.22;;;4.55;100.00
55077;BME280;40971;44.702;11.030;2023-12-20T15:46:45;101196.97;;;4.51;100.00
55077;BME280;40971;44.702;11.030;2023-12-20T15:56:47;101199.16;;;4.09;100.00
55077;BME280;40971;44.702;11.030;2023-12-20T16:06:52;101208.59;;;3.74;100.00
55077;BME280;40971;44.702;11.030;2023-12-20T16:16:57;101199.78;;;3.64;100.00
55077;BME280;40971;44.702;11.030;2023-12-20T16:27:01;101210.31;;;3.00;100.00
55077;BME280;40971;44.702;11.030;2023-12-20T16:37:04;101242.63;;;3.08;100.00
55077;BME280;40971;44.702;11.030;2023-12-20T16:47:07;101260.50;;;3.13;100.00
55077;BME280;40971;44.702;11.030;2023-12-20T16:57:09;101262.94;;;2.23;100.00
55077;BME280;40971;44.702;11.030;2023-12-20T17:07:14;101276.75;;;2.50;100.00
55077;BME280;40971;44.702;11.030;2023-12-20T17:17:18;101270.44;;;2.27;100.00
55077;BME280;40971;44.702;11.030;2023-12-20T17:27:20;101287.59;;;2.16;100.00
55077;BME280;40971;44.702;11.030;2023-12-20T17:37:23;101298.75;;;1.90;100.00
55077;BME280;40971;44.702;11.030;2023-12-20T17:47:28;101316.91;;;1.90;100.00
55077;BME280;40971;44.702;11.030;2023-12-20T17:57:30;101327.06;;;1.50;100.00
55077;BME280;40971;44.702;11.030;2023-12-20T18:07:32;101316.72;;;1.79;100.00
55077;BME280;40971;44.702;11.030;2023-12-20T18:17:36;101343.53;;;1.63;100.00
55077;BME280;40971;44.702;11.030;2023-12-20T18:27:41;101348.19;;;1.43;100.00
55077;BME280;40971;44.702;11.030;2023-12-20T18:37:46;101344.38;;;1.34;100.00
55077;BME280;40971;44.702;11.030;2023-12-20T18:47:51;101335.78;;;1.20;100.00
55077;BME280;40971;44.702;11.030;2023-12-20T18:57:55;101347.72;;;1.06;100.00
55077;BME280;40971;44.702;11.030;2023-12-20T19:07:58;101342.13;;;1.14;100.00
55077;BME280;40971;44.702;11.030;2023-12-20T19:18:03;101351.66;;;0.98;100.00
55077;BME280;40971;44.702;11.030;2023-12-20T19:28:08;101340.22;;;0.72;100.00
55077;BME280;40971;44.702;11.030;2023-12-20T19:38:12;101340.19;;;0.88;100.00
55077;BME280;40971;44.702;11.030;2023-12-20T19:48:14;101356.41;;;0.44;100.00
55077;BME280;40971;44.702;11.030;2023-12-20T19:58:18;101370.25;;;0.28;100.00
55077;BME280;40971;44.702;11.030;2023-12-20T20:08:20;101381.13;;;-0.16;100.00
55077;BME280;40971;44.702;11.030;2023-12-20T20:18:24;101397.44;;;0.02;100.00
55077;BME280;40971;44.702;11.030;2023-12-20T20:28:27;101395.56;;;0.21;100.00
55077;BME280;40971;44.702;11.030;2023-12-20T20:38:31;101392.59;;;-0.04;100.00
55077;BME280;40971;44.702;11.030;2023-12-20T20:48:33;101385.56;;;-0.18;100.00
55077;BME280;40971;44.702;11.030;2023-12-20T20:58:37;101399.19;;;0.34;100.00
55077;BME280;40971;44.702;11.030;2023-12-20T21:08:40;101402.69;;;0.65;100.00
55077;BME280;40971;44.702;11.030;2023-12-20T21:18:42;101416.44;;;0.34;100.00
55077;BME280;40971;44.702;11.030;2023-12-20T21:28:46;101423.81;;;0.41;100.00
55077;BME280;40971;44.702;11.030;2023-12-20T21:38:50;101432.75;;;0.51;100.00
55077;BME280;40971;44.702;11.030;2023-12-20T21:48:56;101439.16;;;0.44;100.00
55077;BME280;40971;44.702;11.030;2023-12-20T21:58:58;101406.63;;;0.72;100.00
55077;BME280;40971;44.702;11.030;2023-12-20T22:09:00;101431.94;;;0.67;100.00
55077;BME280;40971;44.702;11.030;2023-12-20T22:19:03;101417.06;;;0.70;100.00
55077;BME280;40971;44.702;11.030;2023-12-20T22:29:06;101421.78;;;1.09;100.00
55077;BME280;40971;44.702;11.030;2023-12-20T22:39:10;101402.50;;;1.14;100.00
55077;BME280;40971;44.702;11.030;2023-12-20T22:49:13;101388.56;;;1.17;100.00
55077;BME280;40971;44.702;11.030;2023-12-20T22:59:16;101380.47;;;1.37;100.00
55077;BME280;40971;44.702;11.030;2023-12-20T23:09:17;101378.56;;;1.11;100.00
55077;BME280;40971;44.702;11.030;2023-12-20T23:19:19;101364.81;;;0.95;100.00
55077;BME280;40971;44.702;11.030;2023-12-20T23:29:21;101356.63;;;0.24;100.00
55077;BME280;40971;44.702;11.030;2023-12-20T23:39:23;101334.84;;;0.13;100.00
55077;BME280;40971;44.702;11.030;2023-12-20T23:49:25;101354.22;;;0.21;100.00
55077;BME280;40971;44.702;11.030;2023-12-20T23:59:26;101364.38;;;-0.41;100.00
